Time;durP1;ratioP1;P1;durP2;ratioP2;P2;SDS_P1;SDS_P2;PMS_P1;PMS_P2;Temp;Humidity;BMP_temperature;BMP_pressure;BME280_temperature;BME280_humidity;BME280_pressure;Samples;Min_cycle;Max_cycle;Signal;HPM_P1;HPM_P2
2021/05/15 00:01:15;;;;;;;4.67;2.03;;;;;;;5.04;100.00;93271.53;5013954;28;20239;-75
2021/05/15 00:03:41;;;;;;;5.10;1.93;;;;;;;5.11;100.00;93267.22;5014052;28;20652;-74
2021/05/15 00:06:07;;;;;;;3.83;1.70;;;;;;;5.16;100.00;93270.91;5014078;28;20271;-75
2021/05/15 00:08:33;;;;;;;4.37;1.80;;;;;;;5.27;100.00;93261.84;5014070;28;20278;-75
2021/05/15 00:10:59;;;;;;;7.63;1.90;;;;;;;5.40;100.00;93258.63;5013930;28;20663;-76
2021/05/15 00:13:25;;;;;;;5.50;2.47;;;;;;;5.50;100.00;93258.34;5013581;28;20446;-75
2021/05/15 00:15:51;;;;;;;8.80;2.00;;;;;;;5.54;100.00;93259.56;5014049;28;20451;-75
2021/05/15 00:18:18;;;;;;;9.97;2.00;;;;;;;5.60;100.00;93255.47;5013942;28;20200;-76
2021/05/15 00:20:44;;;;;;;4.80;2.40;;;;;;;5.61;100.00;93250.09;5013809;28;20252;-76
2021/05/15 00:23:10;;;;;;;6.17;1.60;;;;;;;5.59;100.00;93244.28;5013903;28;20221;-75
2021/05/15 00:25:36;;;;;;;5.93;2.13;;;;;;;5.59;100.00;93246.09;5013635;28;20687;-75
2021/05/15 00:28:02;;;;;;;3.73;1.53;;;;;;;5.50;100.00;93238.44;5013925;28;20207;-75
2021/05/15 00:30:28;;;;;;;2.37;1.90;;;;;;;5.35;100.00;93228.09;5013775;28;20226;-76
2021/05/15 00:32:54;;;;;;;7.57;1.50;;;;;;;5.18;100.00;93230.09;5013768;28;20243;-76
2021/05/15 00:35:21;;;;;;;3.53;1.63;;;;;;;5.09;100.00;93233.75;5013614;28;20212;-75
2021/05/15 00:37:47;;;;;;;5.33;1.80;;;;;;;4.93;100.00;93229.59;5013568;28;20197;-76
2021/05/15 00:40:14;;;;;;;2.17;1.53;;;;;;;4.80;100.00;93229.44;5013454;28;20295;-77
2021/05/15 00:42:40;;;;;;;2.57;1.40;;;;;;;4.69;100.00;93233.25;5013616;28;20203;-75
2021/05/15 00:45:08;;;;;;;1.70;1.13;;;;;;;4.65;100.00;93226.84;5013319;28;20243;-75
2021/05/15 00:47:34;;;;;;;5.47;1.70;;;;;;;4.65;100.00;93221.69;5013345;28;20783;-75
2021/05/15 00:50:01;;;;;;;1.70;1.50;;;;;;;4.52;100.00;93221.50;5012996;28;20197;-76
2021/05/15 00:52:34;;;;;;;2.43;1.60;;;;;;;4.38;100.00;93223.88;5013191;28;20201;-76
2021/05/15 00:55:01;;;;;;;2.43;1.60;;;;;;;4.33;100.00;93221.03;5013621;28;20201;-77
2021/05/15 00:57:27;;;;;;;5.97;1.87;;;;;;;4.28;100.00;93225.09;5013501;28;20200;-77
2021/05/15 00:59:53;;;;;;;3.60;1.80;;;;;;;4.29;100.00;93216.38;5013334;28;20201;-76
2021/05/15 01:02:19;;;;;;;5.47;1.87;;;;;;;4.20;100.00;93210.50;5013079;28;20232;-76
2021/05/15 01:04:45;;;;;;;4.57;1.80;;;;;;;4.23;100.00;93210.94;5013107;28;20303;-76
2021/05/15 01:07:11;;;;;;;5.63;1.87;;;;;;;4.20;100.00;93215.66;5013023;28;20205;-76
2021/05/15 01:09:38;;;;;;;3.63;1.50;;;;;;;4.22;100.00;93216.28;5013354;28;20200;-75
2021/05/15 01:12:05;;;;;;;3.23;1.60;;;;;;;4.12;100.00;93226.06;5027089;28;20207;-76
2021/05/15 01:14:32;;;;;;;5.30;2.03;;;;;;;4.24;100.00;93219.47;5032886;28;20238;-75
2021/05/15 01:16:58;;;;;;;3.80;1.60;;;;;;;4.22;100.00;93229.19;5032735;28;20655;-75
2021/05/15 01:19:25;;;;;;;6.83;1.97;;;;;;;4.20;100.00;93236.31;5032755;28;20677;-75
2021/05/15 01:21:51;;;;;;;3.47;1.83;;;;;;;4.28;100.00;93231.09;5032806;28;20200;-76
2021/05/15 01:24:17;;;;;;;5.23;1.90;;;;;;;4.33;100.00;93220.19;5032805;28;20216;-76
2021/05/15 01:26:43;;;;;;;2.97;1.97;;;;;;;4.34;100.00;93227.00;5032886;28;20215;-75
2021/05/15 01:29:09;;;;;;;2.60;1.63;;;;;;;4.31;100.00;93224.75;5032599;28;20216;-76
2021/05/15 01:31:37;;;;;;;11.67;1.67;;;;;;;4.28;100.00;93225.91;5032748;28;20359;-76
2021/05/15 01:34:05;;;;;;;6.40;1.87;;;;;;;4.30;100.00;93234.28;5032679;28;20571;-75
2021/05/15 01:36:35;;;;;;;2.88;1.80;;;;;;;4.21;100.00;93235.34;5031562;28;20812;-76
2021/05/15 01:39:02;;;;;;;2.97;1.70;;;;;;;4.12;100.00;93226.84;5032782;28;20230;-76
2021/05/15 01:41:28;;;;;;;3.27;1.50;;;;;;;4.14;100.00;93229.28;5032711;28;20216;-75
2021/05/15 01:43:57;;;;;;;2.40;1.40;;;;;;;4.05;100.00;93225.97;5032600;28;20544;-75
2021/05/15 01:46:23;;;;;;;4.23;1.40;;;;;;;4.02;100.00;93227.09;5032509;28;20238;-75
2021/05/15 01:48:49;;;;;;;3.03;1.57;;;;;;;4.01;100.00;93222.94;5032378;28;20228;-74
2021/05/15 01:51:15;;;;;;;4.57;1.67;;;;;;;3.91;100.00;93219.75;5032669;28;20211;-75
2021/05/15 01:53:43;;;;;;;6.83;1.50;;;;;;;3.87;100.00;93218.50;5032618;28;20297;-75
2021/05/15 01:56:12;;;;;;;1.83;1.47;;;;;;;3.97;100.00;93218.28;5032537;28;20200;-75
2021/05/15 01:58:39;;;;;;;1.93;1.70;;;;;;;4.07;100.00;93208.50;5032380;28;20687;-75
2021/05/15 02:01:06;;;;;;;3.73;1.47;;;;;;;3.96;100.00;93209.69;5033219;28;20320;-75
2021/05/15 02:03:33;;;;;;;6.37;2.23;;;;;;;4.02;100.00;93210.81;5036079;28;20215;-75
2021/05/15 02:05:59;;;;;;;7.10;2.00;;;;;;;3.99;100.00;93211.16;5036244;28;20247;-75
2021/05/15 02:08:25;;;;;;;3.43;1.57;;;;;;;3.97;100.00;93208.75;5036211;28;20200;-75
2021/05/15 02:10:52;;;;;;;1.90;1.67;;;;;;;3.97;100.00;93202.78;5035942;28;20206;-75
2021/05/15 02:13:20;;;;;;;5.20;1.80;;;;;;;3.96;100.00;93196.78;5036084;28;20216;-75
2021/05/15 02:15:47;;;;;;;4.87;1.60;;;;;;;3.85;100.00;93190.28;5035868;28;20242;-75
2021/05/15 02:18:14;;;;;;;2.47;1.60;;;;;;;3.73;100.00;93193.44;5035803;28;20204;-75
2021/05/15 02:20:41;;;;;;;2.00;1.40;;;;;;;3.80;100.00;93187.41;5036002;28;20246;-75
2021/05/15 02:23:08;;;;;;;2.43;1.43;;;;;;;3.66;100.00;93180.41;5035967;28;20250;-75
2021/05/15 02:25:34;;;;;;;4.90;1.63;;;;;;;3.68;100.00;93179.28;5035671;28;20695;-76
2021/05/15 02:28:00;;;;;;;2.73;1.53;;;;;;;3.73;100.00;93177.94;5035756;28;20575;-76
2021/05/15 02:30:29;;;;;;;1.80;1.50;;;;;;;3.64;100.00;93178.00;5035706;28;20275;-75
2021/05/15 02:32:55;;;;;;;2.53;1.60;;;;;;;3.59;100.00;93172.56;5035833;28;20212;-76
2021/05/15 02:35:21;;;;;;;4.67;2.07;;;;;;;3.56;100.00;93169.53;5035559;28;20663;-75
2021/05/15 02:37:47;;;;;;;2.53;1.47;;;;;;;3.49;100.00;93170.22;5035450;28;20663;-77
2021/05/15 02:40:14;;;;;;;3.17;1.80;;;;;;;3.62;100.00;93163.69;5035530;28;20236;-75
2021/05/15 02:42:41;;;;;;;3.13;1.80;;;;;;;3.62;100.00;93161.09;5035348;28;20200;-76
2021/05/15 02:45:10;;;;;;;4.23;1.70;;;;;;;3.53;100.00;93155.22;5035234;28;20227;-76
2021/05/15 02:47:37;;;;;;;2.93;2.00;;;;;;;3.63;100.00;93160.13;5035576;28;20208;-75
2021/05/15 02:50:04;;;;;;;3.20;1.87;;;;;;;3.68;100.00;93161.22;5035478;28;20204;-75
2021/05/15 02:52:30;;;;;;;4.63;1.80;;;;;;;3.68;100.00;93163.78;5035289;28;20200;-75
2021/05/15 02:54:56;;;;;;;3.93;1.70;;;;;;;3.61;100.00;93156.91;5035242;28;20208;-76
2021/05/15 02:57:22;;;;;;;2.77;1.73;;;;;;;3.58;100.00;93165.81;5035238;28;20200;-76
2021/05/15 02:59:48;;;;;;;5.30;1.90;;;;;;;3.63;100.00;93170.44;5035047;28;20207;-76
2021/05/15 03:02:14;;;;;;;4.27;1.87;;;;;;;3.65;100.00;93164.13;5034912;28;20598;-76
2021/05/15 03:04:41;;;;;;;4.93;1.80;;;;;;;3.67;100.00;93161.38;5033573;28;20255;-75
2021/05/15 03:07:07;;;;;;;3.07;1.70;;;;;;;3.81;100.00;93159.81;5033224;28;20196;-76
2021/05/15 03:09:33;;;;;;;1.83;1.57;;;;;;;3.77;100.00;93161.16;5035047;28;20243;-76
2021/05/15 03:11:59;;;;;;;4.70;1.60;;;;;;;3.74;100.00;93164.06;5034592;28;20660;-76
2021/05/15 03:14:25;;;;;;;2.17;1.70;;;;;;;3.68;100.00;93163.78;5034758;28;20210;-76
2021/05/15 03:16:50;;;;;;;2.60;1.60;;;;;;;3.66;100.00;93160.59;5034970;28;20204;-75
2021/05/15 03:19:16;;;;;;;2.20;1.50;;;;;;;3.77;100.00;93156.78;5034880;28;20204;-76
2021/05/15 03:21:43;;;;;;;8.57;1.70;;;;;;;3.81;100.00;93150.28;5034675;28;20219;-76
2021/05/15 03:24:09;;;;;;;4.53;1.83;;;;;;;3.78;100.00;93155.81;5034744;28;20249;-76
2021/05/15 03:26:35;;;;;;;2.13;1.47;;;;;;;3.83;100.00;93150.94;5034561;28;20298;-76
2021/05/15 03:29:01;;;;;;;3.95;1.88;;;;;;;3.84;100.00;93151.72;5034033;28;20464;-75
2021/05/15 03:31:27;;;;;;;3.70;1.67;;;;;;;3.89;100.00;93136.50;5034800;28;20211;-76
2021/05/15 03:33:53;;;;;;;7.33;1.80;;;;;;;3.94;100.00;93144.53;5034535;28;20200;-76
2021/05/15 03:36:20;;;;;;;1.73;1.53;;;;;;;3.96;100.00;93142.56;5034528;28;20587;-76
2021/05/15 03:38:47;;;;;;;3.73;1.70;;;;;;;4.07;100.00;93138.75;5034390;28;20278;-76
2021/05/15 03:41:13;;;;;;;2.63;1.90;;;;;;;4.12;100.00;93140.81;5034355;28;20685;-77
2021/05/15 03:43:39;;;;;;;2.53;1.60;;;;;;;4.16;100.00;93145.44;5034263;28;20208;-76
2021/05/15 03:46:05;;;;;;;4.07;1.70;;;;;;;4.22;100.00;93134.41;5034284;28;20228;-76
2021/05/15 03:48:31;;;;;;;2.60;1.53;;;;;;;4.33;100.00;93135.75;5034388;28;20227;-75
2021/05/15 03:50:57;;;;;;;2.43;1.23;;;;;;;4.17;100.00;93138.50;5034265;28;20196;-75
2021/05/15 03:53:23;;;;;;;2.00;1.30;;;;;;;4.05;100.00;93136.34;5034104;28;20226;-75
2021/05/15 03:55:50;;;;;;;3.30;1.33;;;;;;;3.91;100.00;93137.13;5034035;28;20230;-76
2021/05/15 03:58:16;;;;;;;4.50;1.60;;;;;;;3.86;100.00;93144.59;5034223;28;20204;-77
2021/05/15 04:00:43;;;;;;;3.30;1.43;;;;;;;3.89;100.00;93146.84;5033910;28;20203;-76
2021/05/15 04:03:09;;;;;;;1.77;1.30;;;;;;;3.98;100.00;93143.22;5034041;28;20219;-76
2021/05/15 04:05:35;;;;;;;2.77;1.40;;;;;;;3.94;100.00;93152.28;5033915;28;20254;-76
2021/05/15 04:08:01;;;;;;;2.30;1.40;;;;;;;4.12;100.00;93143.41;5033907;28;20200;-76
2021/05/15 04:10:27;;;;;;;1.50;1.30;;;;;;;4.10;100.00;93145.34;5033689;28;20256;-76
2021/05/15 04:13:02;;;;;;;1.63;1.40;;;;;;;4.15;100.00;93143.06;5033962;28;20207;-76
2021/05/15 04:15:37;;;;;;;3.00;1.55;;;;;;;4.15;100.00;93153.38;5032735;28;20441;-75
2021/05/15 04:18:07;;;;;;;3.67;1.30;;;;;;;4.23;100.00;93153.28;5033794;28;20204;-76
2021/05/15 04:20:34;;;;;;;2.50;1.43;;;;;;;4.27;100.00;93144.22;5033589;28;20730;-75
2021/05/15 04:23:00;;;;;;;2.87;1.10;;;;;;;4.15;100.00;93141.25;5033134;28;20200;-76
2021/05/15 04:25:26;;;;;;;1.53;1.33;;;;;;;4.12;100.00;93138.25;5033176;28;20250;-75
2021/05/15 04:27:54;;;;;;;6.77;1.40;;;;;;;4.23;100.00;93145.53;5033647;28;20207;-77
2021/05/15 04:30:21;;;;;;;1.67;1.50;;;;;;;4.26;100.00;93151.16;5033514;28;20207;-76
2021/05/15 04:32:47;;;;;;;2.03;1.60;;;;;;;4.41;100.00;93146.00;5033485;28;20203;-75
2021/05/15 04:35:13;;;;;;;2.53;1.37;;;;;;;4.45;100.00;93149.81;5033379;28;20200;-76
2021/05/15 04:37:39;;;;;;;2.20;1.60;;;;;;;4.50;100.00;93144.13;5033137;28;20196;-76
2021/05/15 04:40:07;;;;;;;1.77;1.27;;;;;;;4.63;100.00;93144.28;5033401;28;20207;-76
2021/05/15 04:42:33;;;;;;;1.80;1.37;;;;;;;4.73;100.00;93149.19;5033471;28;20203;-77
2021/05/15 04:45:00;;;;;;;4.50;1.30;;;;;;;4.85;100.00;93143.56;5033162;28;20733;-76
2021/05/15 04:47:26;;;;;;;2.60;1.43;;;;;;;5.07;100.00;93157.34;5033141;28;20200;-77
2021/05/15 04:49:51;;;;;;;3.40;1.50;;;;;;;5.21;100.00;93156.47;5032954;28;20261;-77
2021/05/15 04:52:17;;;;;;;2.50;1.27;;;;;;;5.33;100.00;93151.66;5032973;28;20207;-76
2021/05/15 04:54:46;;;;;;;3.17;1.20;;;;;;;5.51;100.00;93153.78;5033290;28;20556;-75
2021/05/15 04:57:12;;;;;;;3.43;1.30;;;;;;;5.84;100.00;93143.72;5032981;28;20196;-76
2021/05/15 04:59:38;;;;;;;2.13;1.20;;;;;;;6.02;100.00;93145.09;5032868;28;20204;-76
2021/05/15 05:02:05;;;;;;;3.03;1.37;;;;;;;6.08;100.00;93149.53;5032755;28;20234;-75
2021/05/15 05:04:31;;;;;;;0.90;0.87;;;;;;;6.04;100.00;93146.50;5032721;28;20212;-75
2021/05/15 05:06:57;;;;;;;1.90;1.07;;;;;;;6.15;100.00;93139.22;5032854;28;20208;-76
2021/05/15 05:09:23;;;;;;;6.63;1.10;;;;;;;6.35;100.00;93140.13;5033039;28;20208;-76
2021/05/15 05:11:49;;;;;;;1.80;1.00;;;;;;;6.34;100.00;93141.13;5033029;28;20208;-75
2021/05/15 05:14:15;;;;;;;0.97;0.93;;;;;;;6.33;100.00;93136.13;5029461;28;20651;-75
2021/05/15 05:16:41;;;;;;;2.97;1.10;;;;;;;6.37;100.00;93139.94;5032895;28;20208;-75
2021/05/15 05:19:11;;;;;;;0.93;0.90;;;;;;;6.47;100.00;93143.00;5032825;28;20195;-75
2021/05/15 05:21:37;;;;;;;2.90;1.00;;;;;;;6.76;100.00;93141.13;5033084;28;20204;-75
2021/05/15 05:24:04;;;;;;;1.13;1.00;;;;;;;6.95;100.00;93137.03;5032973;28;20196;-75
2021/05/15 05:26:31;;;;;;;1.67;1.00;;;;;;;7.11;100.00;93134.09;5032645;28;20281;-75
2021/05/15 05:28:59;;;;;;;1.47;1.20;;;;;;;7.22;100.00;93137.91;5032765;28;20544;-75
2021/05/15 05:31:25;;;;;;;2.10;0.97;;;;;;;7.45;100.00;93126.41;5032716;28;20742;-75
2021/05/15 05:33:51;;;;;;;4.20;0.90;;;;;;;7.38;100.00;93134.19;5032574;28;20208;-75
2021/05/15 05:36:17;;;;;;;2.10;0.90;;;;;;;7.47;100.00;93127.78;5035870;28;20204;-76
2021/05/15 05:38:43;;;;;;;2.80;0.90;;;;;;;7.50;100.00;93129.19;5036928;28;20204;-75
2021/05/15 05:41:09;;;;;;;2.90;1.00;;;;;;;7.56;100.00;93130.97;5036697;28;20258;-75
2021/05/15 05:43:35;;;;;;;0.63;0.63;;;;;;;7.68;100.00;93132.03;5036618;28;20207;-75
2021/05/15 05:46:01;;;;;;;4.40;0.87;;;;;;;7.75;100.00;93125.03;5036463;28;20239;-76
2021/05/15 05:48:27;;;;;;;2.30;1.10;;;;;;;8.08;100.00;93124.22;5036458;28;20228;-76
2021/05/15 05:50:53;;;;;;;4.07;1.00;;;;;;;8.25;100.00;93113.41;5036395;28;20207;-76
2021/05/15 05:53:20;;;;;;;1.30;0.90;;;;;;;8.36;100.00;93120.59;5036292;28;20211;-76
2021/05/15 05:55:46;;;;;;;1.90;0.77;;;;;;;8.58;100.00;93118.56;5036353;28;20651;-76
2021/05/15 05:58:12;;;;;;;0.93;0.80;;;;;;;8.64;100.00;93114.34;5036370;28;20196;-75
2021/05/15 06:00:38;;;;;;;0.80;0.80;;;;;;;8.79;100.00;93120.13;5036110;28;20742;-76
2021/05/15 06:03:04;;;;;;;1.60;0.73;;;;;;;9.41;100.00;93123.03;5036188;28;20203;-75
2021/05/15 06:05:29;;;;;;;2.13;0.80;;;;;;;9.79;100.00;93118.78;5036274;28;20314;-76
2021/05/15 06:08:04;;;;;;;1.77;0.90;;;;;;;10.09;100.00;93118.97;5036377;28;20204;-76
2021/05/15 06:10:35;;;;;;;1.90;0.90;;;;;;;10.53;100.00;93117.16;5036147;28;20283;-76
2021/05/15 06:13:01;;;;;;;0.80;0.80;;;;;;;10.32;94.88;93123.56;5036045;28;20660;-75
2021/05/15 06:15:27;;;;;;;2.03;0.90;;;;;;;9.67;98.72;93120.47;5035896;28;20207;-75
2021/05/15 06:17:53;;;;;;;2.23;1.10;;;;;;;9.93;100.00;93129.91;5036122;28;20196;-75
2021/05/15 06:20:19;;;;;;;0.70;0.70;;;;;;;9.99;100.00;93123.84;5036085;28;20207;-75
2021/05/15 06:22:45;;;;;;;2.53;0.90;;;;;;;10.28;98.48;93122.41;5035973;28;20206;-76
2021/05/15 06:25:12;;;;;;;3.40;0.70;;;;;;;10.48;97.62;93121.44;5035865;28;20228;-76
2021/05/15 06:27:39;;;;;;;2.43;1.10;;;;;;;10.57;92.04;93114.91;5035781;28;20203;-74
2021/05/15 06:30:06;;;;;;;3.67;1.37;;;;;;;10.52;94.83;93112.97;5035695;28;20197;-76
2021/05/15 06:32:32;;;;;;;0.57;0.57;;;;;;;10.60;93.98;93109.25;5035631;28;20667;-76
2021/05/15 06:34:58;;;;;;;2.87;0.90;;;;;;;10.87;91.87;93112.38;5035806;28;20242;-76
2021/05/15 06:37:24;;;;;;;0.67;0.60;;;;;;;11.44;90.36;93111.28;5035630;28;20277;-76
2021/05/15 06:39:50;;;;;;;1.23;0.83;;;;;;;11.00;91.78;93106.22;5035580;28;20299;-76
2021/05/15 06:42:16;;;;;;;1.03;0.80;;;;;;;10.60;92.04;93098.81;5035576;28;20211;-76
2021/05/15 06:44:43;;;;;;;0.60;0.60;;;;;;;10.78;91.66;93105.88;5035331;28;20208;-75
2021/05/15 06:47:12;;;;;;;1.87;1.00;;;;;;;10.65;91.38;93106.00;5034765;28;20217;-75
2021/05/15 06:49:38;;;;;;;1.53;0.80;;;;;;;10.68;89.57;93101.16;5035532;28;20208;-76
2021/05/15 06:52:04;;;;;;;3.03;0.87;;;;;;;10.97;90.92;93105.84;5035400;28;20206;-76
2021/05/15 06:54:30;;;;;;;3.17;0.80;;;;;;;10.88;93.32;93105.34;5035325;28;20210;-75
2021/05/15 06:56:56;;;;;;;1.83;0.70;;;;;;;10.92;89.82;93106.50;5035282;28;20571;-76
2021/05/15 06:59:22;;;;;;;0.60;0.60;;;;;;;10.91;87.78;93107.53;5035067;28;20290;-76
2021/05/15 07:01:49;;;;;;;0.60;0.60;;;;;;;11.24;94.63;93114.97;5034955;28;20618;-75
2021/05/15 07:04:15;;;;;;;0.73;0.70;;;;;;;11.43;85.85;93105.25;5035275;28;20200;-75
2021/05/15 07:06:41;;;;;;;0.90;0.67;;;;;;;11.66;84.49;93098.53;5034872;28;20759;-75
2021/05/15 07:09:07;;;;;;;0.50;0.50;;;;;;;12.31;82.11;93097.72;5035033;28;20196;-75
2021/05/15 07:11:33;;;;;;;1.17;0.90;;;;;;;11.77;82.27;93100.34;5034946;28;20262;-77
2021/05/15 07:13:59;;;;;;;1.57;0.80;;;;;;;11.83;82.83;93101.28;5034863;28;20211;-75
2021/05/15 07:16:25;;;;;;;2.07;0.60;;;;;;;11.84;80.10;93103.66;5031814;28;20241;-76
2021/05/15 07:18:51;;;;;;;2.47;0.73;;;;;;;12.01;81.67;93097.81;5034982;28;20651;-76
2021/05/15 07:21:17;;;;;;;0.90;0.70;;;;;;;11.23;80.17;93104.72;5034925;28;20211;-75
2021/05/15 07:23:43;;;;;;;3.37;1.20;;;;;;;11.13;85.32;93104.47;5034764;28;20204;-75
2021/05/15 07:26:10;;;;;;;0.80;0.70;;;;;;;11.54;83.15;93095.06;5034578;28;20236;-75
2021/05/15 07:28:36;;;;;;;2.73;0.63;;;;;;;11.71;84.45;93090.78;5034593;28;20209;-75
2021/05/15 07:31:02;;;;;;;2.60;0.90;;;;;;;11.76;81.83;93090.91;5034213;28;20210;-76
2021/05/15 07:33:28;;;;;;;0.70;0.60;;;;;;;11.90;78.11;93086.28;5034544;28;20695;-75
2021/05/15 07:35:55;;;;;;;1.90;0.63;;;;;;;11.83;79.16;93090.81;5034513;28;20200;-76
2021/05/15 07:38:22;;;;;;;1.80;0.70;;;;;;;11.66;81.44;93086.22;5034557;28;20200;-75
2021/05/15 07:40:48;;;;;;;1.27;0.70;;;;;;;11.81;79.35;93085.81;5034369;28;20200;-76
2021/05/15 07:43:15;;;;;;;1.27;0.67;;;;;;;12.18;83.65;93083.03;5034335;28;20245;-75
2021/05/15 07:45:41;;;;;;;2.13;0.70;;;;;;;12.00;80.80;93078.69;5034416;28;20562;-75
2021/05/15 07:48:07;;;;;;;2.27;0.60;;;;;;;12.34;78.22;93092.03;5034503;28;20294;-75
2021/05/15 07:50:34;;;;;;;1.23;0.63;;;;;;;12.71;77.57;93086.53;5034337;28;20279;-76
2021/05/15 07:53:01;;;;;;;2.23;0.70;;;;;;;12.66;79.75;93086.41;5034255;28;20563;-76
2021/05/15 07:55:27;;;;;;;0.60;0.50;;;;;;;12.64;74.05;93085.88;5034084;28;20230;-76
2021/05/15 07:57:52;;;;;;;1.00;0.70;;;;;;;12.74;74.35;93086.06;5034332;28;20732;-76
2021/05/15 08:00:19;;;;;;;1.53;0.70;;;;;;;12.52;75.33;93085.88;5034020;28;20203;-76
2021/05/15 08:02:45;;;;;;;0.83;0.67;;;;;;;12.61;74.92;93080.25;5033802;28;20254;-76
2021/05/15 08:05:14;;;;;;;0.50;0.50;;;;;;;13.06;75.80;93074.38;5033919;28;20282;-77
2021/05/15 08:07:40;;;;;;;3.03;0.60;;;;;;;13.11;74.06;93079.72;5030490;28;20197;-76
2021/05/15 08:10:09;;;;;;;1.83;0.90;;;;;;;13.38;75.16;93068.69;5033236;28;20214;-78
2021/05/15 08:12:36;;;;;;;0.90;0.70;;;;;;;12.49;74.68;93067.19;5033668;28;20675;-76
2021/05/15 08:15:03;;;;;;;1.43;0.90;;;;;;;12.53;74.87;93078.81;5033569;28;20204;-76
2021/05/15 08:17:29;;;;;;;2.43;0.87;;;;;;;12.17;76.81;93070.97;5033547;28;20211;-77
2021/05/15 08:19:55;;;;;;;1.33;0.80;;;;;;;12.27;76.49;93069.59;5033736;28;20200;-77
2021/05/15 08:22:21;;;;;;;1.40;0.83;;;;;;;12.44;80.07;93067.91;5033693;28;20204;-77
2021/05/15 08:24:47;;;;;;;1.10;0.77;;;;;;;12.30;79.05;93069.16;5033479;28;20200;-76
2021/05/15 08:27:14;;;;;;;5.93;1.00;;;;;;;11.82;80.36;93069.09;5033621;28;20568;-77
2021/05/15 08:29:39;;;;;;;0.77;0.70;;;;;;;12.01;78.59;93072.44;5033590;28;20204;-76
2021/05/15 08:32:05;;;;;;;2.13;0.67;;;;;;;12.24;79.80;93072.66;5033888;28;20687;-78
2021/05/15 08:34:31;;;;;;;0.93;0.70;;;;;;;12.71;77.17;93068.19;5033575;28;20204;-77
2021/05/15 08:36:57;;;;;;;0.60;0.50;;;;;;;12.77;74.57;93069.06;5033438;28;20231;-77
2021/05/15 08:39:23;;;;;;;7.93;0.63;;;;;;;12.70;76.24;93071.03;5033340;28;20266;-77
2021/05/15 08:41:49;;;;;;;0.93;0.63;;;;;;;12.90;74.35;93076.69;5033287;28;20204;-79
2021/05/15 08:44:16;;;;;;;0.77;0.57;;;;;;;13.39;73.96;93065.03;5033262;28;20208;-76
2021/05/15 08:46:44;;;;;;;0.80;0.70;;;;;;;13.77;73.06;93061.78;5033112;28;20273;-77
2021/05/15 08:49:14;;;;;;;0.97;0.67;;;;;;;14.33;69.81;93059.19;5033097;28;20675;-78
2021/05/15 08:51:42;;;;;;;1.77;0.63;;;;;;;14.56;71.95;93055.56;5032998;28;20254;-78
2021/05/15 08:54:08;;;;;;;1.08;0.60;;;;;;;14.63;67.99;93058.03;5033179;28;20254;-77
2021/05/15 08:56:34;;;;;;;3.20;0.90;;;;;;;14.90;69.64;93042.34;5032264;28;20478;-77
2021/05/15 08:59:00;;;;;;;1.55;0.70;;;;;;;13.65;66.22;93043.44;5033185;28;20736;-78
2021/05/15 09:01:27;;;;;;;0.80;0.80;;;;;;;13.78;71.90;93046.81;5032971;28;20236;-76
2021/05/15 09:03:53;;;;;;;2.70;0.70;;;;;;;13.51;69.20;93044.81;5032969;28;20200;-77
2021/05/15 09:06:20;;;;;;;2.73;0.80;;;;;;;13.17;68.01;93036.81;5032859;28;20239;-76
2021/05/15 09:08:48;;;;;;;1.10;0.60;;;;;;;13.86;71.07;93038.56;5033159;28;20210;-77
2021/05/15 09:11:15;;;;;;;2.00;0.80;;;;;;;12.92;67.50;93051.06;5032651;28;20207;-77
2021/05/15 09:13:50;;;;;;;0.80;0.80;;;;;;;12.88;70.08;93039.44;5032925;28;20278;-77
2021/05/15 09:16:16;;;;;;;1.83;0.70;;;;;;;13.53;69.42;93044.56;5032938;28;20203;-77
2021/05/15 09:18:43;;;;;;;1.80;0.80;;;;;;;13.48;68.18;93034.78;5032670;28;20219;-76
2021/05/15 09:21:11;;;;;;;1.97;0.77;;;;;;;13.46;67.91;93034.22;5032993;28;20196;-77
2021/05/15 09:23:39;;;;;;;1.37;0.73;;;;;;;13.38;69.44;93039.84;5029451;28;20662;-76
2021/05/15 09:26:07;;;;;;;1.57;0.70;;;;;;;13.36;72.98;93018.34;5032600;28;20323;-76
2021/05/15 09:28:39;;;;;;;2.23;1.00;;;;;;;12.92;70.78;93035.34;5032723;28;20579;-76
2021/05/15 09:31:15;;;;;;;4.47;0.97;;;;;;;12.57;70.56;93038.84;5032751;28;20339;-75
2021/05/15 09:33:44;;;;;;;1.53;0.80;;;;;;;11.92;72.59;93031.16;5032846;28;20196;-76
2021/05/15 09:36:12;;;;;;;2.33;0.73;;;;;;;12.00;72.91;93028.97;5032811;28;20207;-76
2021/05/15 09:38:39;;;;;;;1.33;1.00;;;;;;;12.33;71.92;93016.34;5032593;28;20204;-76
2021/05/15 09:41:04;;;;;;;2.93;0.97;;;;;;;12.24;71.24;93017.72;5032698;28;20204;-76
2021/05/15 09:43:30;;;;;;;3.83;1.53;;;;;;;12.52;69.15;93014.38;5032651;28;20559;-76
2021/05/15 09:45:56;;;;;;;4.37;1.00;;;;;;;12.52;68.98;93020.41;5032320;28;20312;-76
2021/05/15 09:48:35;;;;;;;1.60;0.70;;;;;;;12.54;68.27;93020.16;5032606;28;20215;-78
2021/05/15 09:51:12;;;;;;;3.17;1.00;;;;;;;12.99;69.71;92995.09;5032377;28;20196;-77
2021/05/15 09:53:38;;;;;;;5.23;0.83;;;;;;;13.08;69.63;92986.63;5032008;28;20223;-76
2021/05/15 09:56:04;;;;;;;3.70;0.80;;;;;;;13.85;63.96;92994.97;5031927;28;20273;-76
2021/05/15 09:58:30;;;;;;;3.17;0.50;;;;;;;14.54;70.13;92980.69;5032040;28;20232;-77
2021/05/15 10:00:56;;;;;;;2.20;0.67;;;;;;;14.76;67.67;92973.59;5032512;28;20623;-78
2021/05/15 10:03:23;;;;;;;2.17;0.90;;;;;;;15.10;64.13;92964.75;5032577;28;20207;-77
2021/05/15 10:06:01;;;;;;;4.63;0.77;;;;;;;13.76;65.17;92964.94;5032115;28;20706;-77
2021/05/15 10:08:29;;;;;;;2.47;0.70;;;;;;;14.71;64.85;92959.63;5032446;28;20625;-77
2021/05/15 10:10:58;;;;;;;4.23;0.90;;;;;;;14.83;60.52;92956.84;5032287;28;20200;-77
2021/05/15 10:13:27;;;;;;;1.85;0.93;;;;;;;14.54;62.37;92965.72;5032543;28;20209;-77
2021/05/15 10:15:53;;;;;;;3.85;0.60;;;;;;;14.22;63.03;92960.31;5032471;28;20215;-77
2021/05/15 10:18:19;;;;;;;2.00;0.65;;;;;;;13.53;65.30;92945.72;5032159;28;20676;-77
2021/05/15 10:20:47;;;;;;;2.27;0.80;;;;;;;13.92;65.94;92945.72;5032276;28;20204;-77
2021/05/15 10:23:18;;;;;;;2.47;0.70;;;;;;;14.32;63.92;92946.50;5034918;28;20246;-77
2021/05/15 10:25:46;;;;;;;2.28;0.65;;;;;;;14.91;62.31;92945.91;5035969;28;20230;-76
2021/05/15 10:28:15;;;;;;;1.87;0.70;;;;;;;14.82;62.66;92952.63;5035944;28;20211;-77
2021/05/15 10:30:41;;;;;;;3.33;0.67;;;;;;;12.70;68.70;92961.03;5035694;28;20200;-77
2021/05/15 10:33:10;;;;;;;2.83;0.80;;;;;;;12.26;73.92;92945.81;5035661;28;20196;-76
2021/05/15 10:35:40;;;;;;;0.80;0.80;;;;;;;12.08;72.50;92959.81;5035720;28;20204;-77
2021/05/15 10:38:10;;;;;;;2.10;0.80;;;;;;;12.34;72.02;92955.09;5035728;28;20203;-78
2021/05/15 10:40:48;;;;;;;4.20;0.90;;;;;;;12.12;71.56;92942.63;5036015;28;20338;-77
2021/05/15 10:43:29;;;;;;;1.00;0.70;;;;;;;13.10;72.22;92929.53;5035648;28;20283;-77
2021/05/15 10:45:55;;;;;;;4.27;0.90;;;;;;;13.35;71.05;92933.63;5035514;28;20234;-76
2021/05/15 10:48:25;;;;;;;1.47;0.70;;;;;;;13.45;69.49;92933.00;5035282;28;20228;-77
2021/05/15 10:50:54;;;;;;;4.10;0.80;;;;;;;13.60;69.59;92925.34;5035345;28;20563;-76
2021/05/15 10:53:22;;;;;;;1.60;0.80;;;;;;;13.44;68.43;92920.91;5035520;28;20287;-77
2021/05/15 10:56:26;;;;;;;3.87;1.27;;;;;;;13.78;66.53;92920.88;5035513;28;20207;-77
2021/05/15 10:59:02;;;;;;;2.58;0.70;;;;;;;13.95;67.05;92908.50;4994319;28;20606;-76
2021/05/15 11:01:28;;;;;;;3.30;0.90;;;;;;;13.99;67.75;92903.56;5035072;28;20234;-77
2021/05/15 11:03:55;;;;;;;1.30;0.90;;;;;;;14.32;69.13;92897.44;5035264;28;20210;-78
2021/05/15 11:06:22;;;;;;;1.55;0.68;;;;;;;14.32;67.68;92900.06;5034859;28;20220;-77
2021/05/15 11:08:59;;;;;;;2.15;0.90;;;;;;;13.58;70.83;92909.06;5034677;28;20456;-76
2021/05/15 11:11:37;;;;;;;1.75;0.93;;;;;;;13.27;70.92;92908.59;5034879;28;20204;-76
2021/05/15 11:14:07;;;;;;;3.15;0.80;;;;;;;12.96;75.64;92897.59;5034999;28;20658;-77
2021/05/15 11:16:33;;;;;;;2.60;0.95;;;;;;;12.67;73.09;92896.81;5031703;28;20200;-77
2021/05/15 11:19:07;;;;;;;3.70;0.90;;;;;;;12.74;73.23;92883.59;5034908;28;20263;-76
2021/05/15 11:21:35;;;;;;;2.10;0.93;;;;;;;12.89;72.91;92889.09;5034708;28;20199;-76
2021/05/15 11:24:01;;;;;;;1.90;0.90;;;;;;;12.92;74.49;92888.63;5034958;28;20254;-77
2021/05/15 11:26:37;;;;;;;2.50;0.80;;;;;;;13.37;72.55;92886.19;5034618;28;20235;-76
2021/05/15 11:29:04;;;;;;;4.53;1.40;;;;;;;12.81;72.39;92880.84;5034703;28;20655;-76
2021/05/15 11:31:37;;;;;;;7.63;3.17;;;;;;;12.42;73.52;92884.06;5034589;28;20200;-76
2021/05/15 11:34:10;;;;;;;7.10;2.63;;;;;;;12.46;74.97;92885.19;5034275;28;20200;-76